sensor_id;sensor_type;location;lat;lon;timestamp;pressure;altitude;pressure_sealevel;temperature;humidity
56042;BME280;48756;41.374;2.066;2023-09-19T00:01:15;101086.56;;;24.28;57.17
56042;BME280;48756;41.374;2.066;2023-09-19T00:03:41;101083.81;;;24.30;56.19
56042;BME280;48756;41.374;2.066;2023-09-19T00:06:08;101088.31;;;24.13;56.64
56042;BME280;48756;41.374;2.066;2023-09-19T00:08:34;101093.53;;;24.15;57.42
56042;BME280;48756;41.374;2.066;2023-09-19T00:11:00;101095.34;;;24.14;57.21
56042;BME280;48756;41.374;2.066;2023-09-19T00:13:32;101095.34;;;24.14;56.31
56042;BME280;48756;41.374;2.066;2023-09-19T00:15:59;101096.88;;;24.19;57.30
56042;BME280;48756;41.374;2.066;2023-09-19T00:18:25;101089.38;;;24.25;55.10
56042;BME280;48756;41.374;2.066;2023-09-19T00:21:01;101091.38;;;24.22;55.46
56042;BME280;48756;41.374;2.066;2023-09-19T00:23:27;101089.72;;;24.19;54.86
56042;BME280;48756;41.374;2.066;2023-09-19T00:25:53;101092.09;;;24.09;55.07
56042;BME280;48756;41.374;2.066;2023-09-19T00:28:22;101091.81;;;24.14;53.97
56042;BME280;48756;41.374;2.066;2023-09-19T00:30:48;101091.63;;;24.03;52.30
56042;BME280;48756;41.374;2.066;2023-09-19T00:33:17;101083.25;;;24.09;51.77
56042;BME280;48756;41.374;2.066;2023-09-19T00:35:49;101081.84;;;24.18;51.28
56042;BME280;48756;41.374;2.066;2023-09-19T00:38:15;101084.31;;;24.06;51.28
56042;BME280;48756;41.374;2.066;2023-09-19T00:40:47;101090.16;;;23.97;53.09
56042;BME280;48756;41.374;2.066;2023-09-19T00:43:13;101088.84;;;23.74;54.05
56042;BME280;48756;41.374;2.066;2023-09-19T00:45:42;101089.50;;;23.94;54.28
56042;BME280;48756;41.374;2.066;2023-09-19T00:48:09;101096.19;;;24.01;54.11
56042;BME280;48756;41.374;2.066;2023-09-19T00:50:35;101088.91;;;23.89;54.49
56042;BME280;48756;41.374;2.066;2023-09-19T00:53:01;101091.09;;;23.82;54.78
56042;BME280;48756;41.374;2.066;2023-09-19T00:55:33;101091.31;;;23.63;55.47
56042;BME280;48756;41.374;2.066;2023-09-19T00:57:59;101101.59;;;23.69;56.22
56042;BME280;48756;41.374;2.066;2023-09-19T01:00:26;101105.44;;;23.48;56.80
56042;BME280;48756;41.374;2.066;2023-09-19T01:02:52;101105.91;;;23.40;57.01
56042;BME280;48756;41.374;2.066;2023-09-19T01:05:18;101105.31;;;23.19;57.70
56042;BME280;48756;41.374;2.066;2023-09-19T01:07:44;101110.88;;;22.99;58.39
56042;BME280;48756;41.374;2.066;2023-09-19T01:10:13;101113.00;;;23.08;58.46
56042;BME280;48756;41.374;2.066;2023-09-19T01:21:22;101101.84;;;23.49;59.64
56042;BME280;48756;41.374;2.066;2023-09-19T01:27:09;101101.34;;;23.42;60.09
56042;BME280;48756;41.374;2.066;2023-09-19T01:29:46;101095.09;;;23.28;60.05
56042;BME280;48756;41.374;2.066;2023-09-19T01:32:16;101095.72;;;23.33;59.29
56042;BME280;48756;41.374;2.066;2023-09-19T01:34:51;101099.81;;;23.38;59.60
56042;BME280;48756;41.374;2.066;2023-09-19T01:37:18;101100.00;;;23.19;61.29
56042;BME280;48756;41.374;2.066;2023-09-19T01:40:03;101107.69;;;23.24;58.99
56042;BME280;48756;41.374;2.066;2023-09-19T01:51:46;101102.03;;;22.99;61.55
56042;BME280;48756;41.374;2.066;2023-09-19T01:54:27;101111.13;;;22.95;61.56
56042;BME280;48756;41.374;2.066;2023-09-19T01:57:20;101116.19;;;22.99;62.16
56042;BME280;48756;41.374;2.066;2023-09-19T01:59:52;101112.06;;;22.94;62.01
56042;BME280;48756;41.374;2.066;2023-09-19T02:02:21;101114.97;;;22.89;62.96
56042;BME280;48756;41.374;2.066;2023-09-19T02:04:48;101119.34;;;22.90;62.88
56042;BME280;48756;41.374;2.066;2023-09-19T02:07:16;101124.25;;;22.80;61.88
56042;BME280;48756;41.374;2.066;2023-09-19T02:09:42;101124.84;;;22.87;62.36
56042;BME280;48756;41.374;2.066;2023-09-19T02:12:09;101121.59;;;22.98;63.13
56042;BME280;48756;41.374;2.066;2023-09-19T02:14:35;101121.94;;;22.74;63.40
56042;BME280;48756;41.374;2.066;2023-09-19T02:17:02;101124.59;;;22.74;64.90
56042;BME280;48756;41.374;2.066;2023-09-19T02:19:36;101127.97;;;22.60;64.24
56042;BME280;48756;41.374;2.066;2023-09-19T02:22:04;101128.41;;;22.53;64.01
56042;BME280;48756;41.374;2.066;2023-09-19T02:24:38;101125.03;;;22.67;65.62
56042;BME280;48756;41.374;2.066;2023-09-19T02:27:04;101136.94;;;22.75;64.52
56042;BME280;48756;41.374;2.066;2023-09-19T02:29:30;101128.13;;;22.75;62.30
56042;BME280;48756;41.374;2.066;2023-09-19T02:31:56;101131.16;;;22.84;61.15
56042;BME280;48756;41.374;2.066;2023-09-19T02:34:22;101132.56;;;22.74;62.09
56042;BME280;48756;41.374;2.066;2023-09-19T02:36:48;101137.59;;;22.63;62.07
56042;BME280;48756;41.374;2.066;2023-09-19T02:39:14;101140.03;;;22.68;63.04
56042;BME280;48756;41.374;2.066;2023-09-19T02:41:39;101138.16;;;22.52;61.70
56042;BME280;48756;41.374;2.066;2023-09-19T02:44:07;101134.91;;;22.47;62.85
56042;BME280;48756;41.374;2.066;2023-09-19T02:46:36;101127.69;;;22.67;63.70
56042;BME280;48756;41.374;2.066;2023-09-19T02:49:02;101136.00;;;22.76;64.02
56042;BME280;48756;41.374;2.066;2023-09-19T02:51:31;101141.03;;;22.65;63.36
56042;BME280;48756;41.374;2.066;2023-09-19T02:53:59;101138.22;;;22.68;61.97
56042;BME280;48756;41.374;2.066;2023-09-19T02:56:25;101144.22;;;22.72;62.82
56042;BME280;48756;41.374;2.066;2023-09-19T02:58:50;101137.28;;;22.69;63.63
56042;BME280;48756;41.374;2.066;2023-09-19T03:01:16;101129.56;;;22.65;64.85
56042;BME280;48756;41.374;2.066;2023-09-19T03:03:43;101135.84;;;22.46;64.07
56042;BME280;48756;41.374;2.066;2023-09-19T03:06:10;101127.97;;;22.60;66.23
56042;BME280;48756;41.374;2.066;2023-09-19T03:08:42;101130.50;;;22.64;63.86
56042;BME280;48756;41.374;2.066;2023-09-19T03:11:07;101128.63;;;22.66;65.33
56042;BME280;48756;41.374;2.066;2023-09-19T03:13:35;101117.91;;;22.67;65.75
56042;BME280;48756;41.374;2.066;2023-09-19T03:16:06;101120.00;;;22.60;64.16
56042;BME280;48756;41.374;2.066;2023-09-19T03:18:34;101117.34;;;22.60;62.87
56042;BME280;48756;41.374;2.066;2023-09-19T03:21:00;101113.47;;;22.68;63.80
56042;BME280;48756;41.374;2.066;2023-09-19T03:23:26;101119.16;;;22.60;62.61
56042;BME280;48756;41.374;2.066;2023-09-19T03:25:54;101122.59;;;22.62;62.93
56042;BME280;48756;41.374;2.066;2023-09-19T03:28:22;101120.78;;;22.62;66.99
56042;BME280;48756;41.374;2.066;2023-09-19T03:30:58;101122.81;;;22.42;66.29
56042;BME280;48756;41.374;2.066;2023-09-19T03:33:25;101121.97;;;22.57;64.31
56042;BME280;48756;41.374;2.066;2023-09-19T03:35:53;101122.22;;;22.52;64.58
56042;BME280;48756;41.374;2.066;2023-09-19T03:38:19;101120.44;;;22.53;67.29
56042;BME280;48756;41.374;2.066;2023-09-19T03:40:45;101125.06;;;22.49;65.24
56042;BME280;48756;41.374;2.066;2023-09-19T03:43:11;101127.97;;;22.45;65.37
56042;BME280;48756;41.374;2.066;2023-09-19T03:45:36;101127.88;;;22.46;65.52
56042;BME280;48756;41.374;2.066;2023-09-19T03:48:10;101124.88;;;22.52;65.24
56042;BME280;48756;41.374;2.066;2023-09-19T03:50:36;101132.69;;;22.55;65.50
56042;BME280;48756;41.374;2.066;2023-09-19T03:53:02;101125.75;;;22.53;65.76
56042;BME280;48756;41.374;2.066;2023-09-19T03:55:28;101129.59;;;22.47;65.90
56042;BME280;48756;41.374;2.066;2023-09-19T03:57:56;101122.09;;;22.38;66.21
56042;BME280;48756;41.374;2.066;2023-09-19T04:00:22;101123.66;;;22.42;65.94
56042;BME280;48756;41.374;2.066;2023-09-19T04:02:51;101129.13;;;22.39;65.09
56042;BME280;48756;41.374;2.066;2023-09-19T04:05:17;101125.38;;;22.43;65.98
56042;BME280;48756;41.374;2.066;2023-09-19T04:07:43;101121.78;;;22.44;64.66
56042;BME280;48756;41.374;2.066;2023-09-19T04:10:09;101115.47;;;22.47;65.19
56042;BME280;48756;41.374;2.066;2023-09-19T04:12:37;101120.69;;;22.48;66.00
56042;BME280;48756;41.374;2.066;2023-09-19T04:15:04;101121.31;;;22.36;67.69
56042;BME280;48756;41.374;2.066;2023-09-19T04:17:30;101122.09;;;22.38;66.92
56042;BME280;48756;41.374;2.066;2023-09-19T04:19:58;101126.31;;;22.42;67.05
56042;BME280;48756;41.374;2.066;2023-09-19T04:22:24;101122.47;;;22.48;67.18
56042;BME280;48756;41.374;2.066;2023-09-19T04:24:50;101123.81;;;22.39;67.11
56042;BME280;48756;41.374;2.066;2023-09-19T04:27:16;101134.38;;;22.41;67.68
56042;BME280;48756;41.374;2.066;2023-09-19T04:29:42;101131.16;;;22.34;68.48
56042;BME280;48756;41.374;2.066;2023-09-19T04:32:08;101132.75;;;22.21;68.47
56042;BME280;48756;41.374;2.066;2023-09-19T04:34:35;101131.72;;;22.23;68.63
56042;BME280;48756;41.374;2.066;2023-09-19T04:37:01;101127.13;;;22.27;68.81
56042;BME280;48756;41.374;2.066;2023-09-19T04:39:27;101138.88;;;22.39;68.71
56042;BME280;48756;41.374;2.066;2023-09-19T04:41:53;101129.25;;;22.20;68.24
56042;BME280;48756;41.374;2.066;2023-09-19T04:44:20;101131.81;;;21.68;70.26
56042;BME280;48756;41.374;2.066;2023-09-19T04:46:46;101131.91;;;21.84;70.10
56042;BME280;48756;41.374;2.066;2023-09-19T04:49:12;101138.66;;;22.09;70.38
56042;BME280;48756;41.374;2.066;2023-09-19T04:51:38;101141.09;;;22.13;69.80
56042;BME280;48756;41.374;2.066;2023-09-19T04:54:05;101140.78;;;22.19;70.40
56042;BME280;48756;41.374;2.066;2023-09-19T04:56:30;101141.78;;;22.17;70.67
56042;BME280;48756;41.374;2.066;2023-09-19T04:58:58;101138.25;;;22.16;70.52
56042;BME280;48756;41.374;2.066;2023-09-19T05:01:24;101143.19;;;22.07;70.36
56042;BME280;48756;41.374;2.066;2023-09-19T05:03:50;101147.94;;;22.00;71.08
56042;BME280;48756;41.374;2.066;2023-09-19T05:06:20;101151.81;;;21.93;69.97
56042;BME280;48756;41.374;2.066;2023-09-19T05:08:47;101149.94;;;21.95;70.04
56042;BME280;48756;41.374;2.066;2023-09-19T05:11:17;101152.97;;;22.06;70.31
56042;BME280;48756;41.374;2.066;2023-09-19T05:13:43;101153.31;;;21.98;69.82
56042;BME280;48756;41.374;2.066;2023-09-19T05:16:08;101158.09;;;22.09;69.17
56042;BME280;48756;41.374;2.066;2023-09-19T05:18:35;101158.81;;;22.13;68.63
56042;BME280;48756;41.374;2.066;2023-09-19T05:21:07;101157.41;;;22.23;69.10
56042;BME280;48756;41.374;2.066;2023-09-19T05:23:33;101154.50;;;22.10;69.20
56042;BME280;48756;41.374;2.066;2023-09-19T05:26:00;101161.53;;;22.11;69.58
56042;BME280;48756;41.374;2.066;2023-09-19T05:28:26;101163.34;;;22.11;69.47
56042;BME280;48756;41.374;2.066;2023-09-19T05:30:55;101156.22;;;22.11;69.03
56042;BME280;48756;41.374;2.066;2023-09-19T05:33:21;101164.19;;;22.11;69.06
56042;BME280;48756;41.374;2.066;2023-09-19T05:35:49;101162.97;;;22.18;70.17
56042;BME280;48756;41.374;2.066;2023-09-19T05:38:15;101163.94;;;22.16;71.33
56042;BME280;48756;41.374;2.066;2023-09-19T05:40:44;101164.28;;;22.27;70.74
56042;BME280;48756;41.374;2.066;2023-09-19T05:43:10;101164.28;;;22.27;70.57
56042;BME280;48756;41.374;2.066;2023-09-19T05:45:36;101168.97;;;22.22;70.22
56042;BME280;48756;41.374;2.066;2023-09-19T05:48:10;101173.97;;;22.28;70.72
56042;BME280;48756;41.374;2.066;2023-09-19T05:50:37;101178.78;;;22.37;70.51
56042;BME280;48756;41.374;2.066;2023-09-19T05:53:03;101184.41;;;22.31;71.00
56042;BME280;48756;41.374;2.066;2023-09-19T05:55:30;101183.31;;;22.35;71.50
56042;BME280;48756;41.374;2.066;2023-09-19T05:57:56;101184.97;;;22.20;72.81
56042;BME280;48756;41.374;2.066;2023-09-19T06:00:22;101184.66;;;22.26;72.25
56042;BME280;48756;41.374;2.066;2023-09-19T06:02:56;101189.25;;;22.40;72.19
56042;BME280;48756;41.374;2.066;2023-09-19T06:05:24;101182.09;;;22.42;70.79
56042;BME280;48756;41.374;2.066;2023-09-19T06:07:52;101181.94;;;22.45;70.59
56042;BME280;48756;41.374;2.066;2023-09-19T06:10:18;101182.63;;;22.31;71.49
56042;BME280;48756;41.374;2.066;2023-09-19T06:12:46;101183.41;;;22.34;72.82
56042;BME280;48756;41.374;2.066;2023-09-19T06:15:13;101180.66;;;22.35;71.12
56042;BME280;48756;41.374;2.066;2023-09-19T06:17:43;101180.13;;;22.46;71.53
56042;BME280;48756;41.374;2.066;2023-09-19T06:20:11;101182.22;;;22.39;69.97
56042;BME280;48756;41.374;2.066;2023-09-19T06:22:41;101179.03;;;22.50;69.98
56042;BME280;48756;41.374;2.066;2023-09-19T06:25:08;101180.28;;;22.25;69.50
56042;BME280;48756;41.374;2.066;2023-09-19T06:27:37;101175.34;;;22.35;69.85
56042;BME280;48756;41.374;2.066;2023-09-19T06:30:03;101178.09;;;22.51;71.76
56042;BME280;48756;41.374;2.066;2023-09-19T06:32:29;101180.97;;;22.64;72.28
56042;BME280;48756;41.374;2.066;2023-09-19T06:34:54;101185.25;;;22.66;71.27
56042;BME280;48756;41.374;2.066;2023-09-19T06:37:21;101189.72;;;22.66;70.54
56042;BME280;48756;41.374;2.066;2023-09-19T06:39:47;101189.63;;;22.67;71.23
56042;BME280;48756;41.374;2.066;2023-09-19T06:42:15;101190.00;;;22.59;68.52
56042;BME280;48756;41.374;2.066;2023-09-19T06:44:42;101191.75;;;22.26;68.90
56042;BME280;48756;41.374;2.066;2023-09-19T06:47:08;101193.47;;;22.27;69.35
56042;BME280;48756;41.374;2.066;2023-09-19T06:49:35;101194.44;;;22.43;68.46
56042;BME280;48756;41.374;2.066;2023-09-19T06:52:01;101195.13;;;22.47;68.41
56042;BME280;48756;41.374;2.066;2023-09-19T06:54:28;101191.91;;;22.40;67.77
56042;BME280;48756;41.374;2.066;2023-09-19T06:56:56;101193.84;;;22.54;66.24
56042;BME280;48756;41.374;2.066;2023-09-19T06:59:24;101190.41;;;22.52;66.46
56042;BME280;48756;41.374;2.066;2023-09-19T07:01:50;101190.84;;;22.77;66.16
56042;BME280;48756;41.374;2.066;2023-09-19T07:04:16;101189.69;;;22.83;66.37
56042;BME280;48756;41.374;2.066;2023-09-19T07:06:42;101194.53;;;22.75;66.19
56042;BME280;48756;41.374;2.066;2023-09-19T07:09:08;101189.25;;;22.57;67.32
56042;BME280;48756;41.374;2.066;2023-09-19T07:11:34;101183.66;;;22.79;67.14
56042;BME280;48756;41.374;2.066;2023-09-19T07:14:00;101183.22;;;23.04;66.74
56042;BME280;48756;41.374;2.066;2023-09-19T07:16:28;101187.53;;;23.22;65.08
56042;BME280;48756;41.374;2.066;2023-09-19T07:18:57;101192.47;;;22.97;64.74
56042;BME280;48756;41.374;2.066;2023-09-19T07:21:23;101192.84;;;23.07;65.13
56042;BME280;48756;41.374;2.066;2023-09-19T07:23:49;101195.06;;;22.99;65.36
56042;BME280;48756;41.374;2.066;2023-09-19T07:26:16;101198.31;;;22.88;65.98
56042;BME280;48756;41.374;2.066;2023-09-19T07:28:42;101201.72;;;22.90;66.23
56042;BME280;48756;41.374;2.066;2023-09-19T07:31:07;101201.06;;;23.02;65.63
56042;BME280;48756;41.374;2.066;2023-09-19T07:33:35;101209.06;;;22.85;66.42
56042;BME280;48756;41.374;2.066;2023-09-19T07:36:02;101206.28;;;22.88;66.52
56042;BME280;48756;41.374;2.066;2023-09-19T07:38:27;101216.63;;;23.26;66.04
56042;BME280;48756;41.374;2.066;2023-09-19T07:41:00;101220.69;;;23.48;65.13
56042;BME280;48756;41.374;2.066;2023-09-19T07:43:26;101222.13;;;23.22;65.06
56042;BME280;48756;41.374;2.066;2023-09-19T07:45:52;101221.78;;;23.29;65.14
56042;BME280;48756;41.374;2.066;2023-09-19T07:48:17;101229.53;;;23.33;65.10
56042;BME280;48756;41.374;2.066;2023-09-19T07:50:43;101229.34;;;23.36;64.59
56042;BME280;48756;41.374;2.066;2023-09-19T07:53:09;101224.72;;;23.40;64.94
56042;BME280;48756;41.374;2.066;2023-09-19T07:55:35;101227.63;;;23.51;63.83
56042;BME280;48756;41.374;2.066;2023-09-19T07:58:01;101231.50;;;23.93;63.62
56042;BME280;48756;41.374;2.066;2023-09-19T08:00:29;101233.88;;;24.13;63.09
56042;BME280;48756;41.374;2.066;2023-09-19T08:02:55;101231.50;;;24.08;62.94
56042;BME280;48756;41.374;2.066;2023-09-19T08:05:21;101232.16;;;24.12;62.44
56042;BME280;48756;41.374;2.066;2023-09-19T08:07:47;101237.31;;;24.31;61.67
56042;BME280;48756;41.374;2.066;2023-09-19T08:10:16;101244.00;;;24.38;62.13
56042;BME280;48756;41.374;2.066;2023-09-19T08:12:45;101242.19;;;24.68;60.54
56042;BME280;48756;41.374;2.066;2023-09-19T08:15:15;101249.13;;;24.41;61.13
56042;BME280;48756;41.374;2.066;2023-09-19T08:17:41;101246.38;;;24.42;60.51
56042;BME280;48756;41.374;2.066;2023-09-19T08:20:08;101252.16;;;24.65;60.71
56042;BME280;48756;41.374;2.066;2023-09-19T08:22:52;101253.81;;;24.82;59.00
56042;BME280;48756;41.374;2.066;2023-09-19T08:25:20;101252.38;;;24.76;59.17
56042;BME280;48756;41.374;2.066;2023-09-19T08:27:47;101264.31;;;24.55;59.82
56042;BME280;48756;41.374;2.066;2023-09-19T08:30:19;101261.31;;;24.75;60.46
56042;BME280;48756;41.374;2.066;2023-09-19T08:33:01;101271.09;;;24.60;60.27
56042;BME280;48756;41.374;2.066;2023-09-19T08:35:28;101273.31;;;24.68;60.20
56042;BME280;48756;41.374;2.066;2023-09-19T08:37:54;101275.88;;;24.84;60.50
56042;BME280;48756;41.374;2.066;2023-09-19T08:40:20;101283.97;;;24.68;60.18
56042;BME280;48756;41.374;2.066;2023-09-19T08:42:50;101283.63;;;24.58;60.70
56042;BME280;48756;41.374;2.066;2023-09-19T08:45:17;101289.00;;;25.02;59.05
56042;BME280;48756;41.374;2.066;2023-09-19T08:47:53;101287.78;;;25.22;58.91
56042;BME280;48756;41.374;2.066;2023-09-19T08:50:28;101290.16;;;25.13;59.81
56042;BME280;48756;41.374;2.066;2023-09-19T08:52:55;101284.09;;;24.95;60.14
56042;BME280;48756;41.374;2.066;2023-09-19T08:55:28;101283.22;;;25.39;58.70
56042;BME280;48756;41.374;2.066;2023-09-19T08:58:03;101288.88;;;25.89;58.05
56042;BME280;48756;41.374;2.066;2023-09-19T09:00:30;101291.75;;;25.86;58.62
56042;BME280;48756;41.374;2.066;2023-09-19T09:02:57;101293.47;;;25.73;58.63
56042;BME280;48756;41.374;2.066;2023-09-19T09:05:24;101305.41;;;25.68;60.79
56042;BME280;48756;41.374;2.066;2023-09-19T09:07:52;101306.09;;;25.98;60.17
56042;BME280;48756;41.374;2.066;2023-09-19T09:10:21;101309.69;;;25.84;59.95
56042;BME280;48756;41.374;2.066;2023-09-19T09:12:52;101308.63;;;25.87;61.17
56042;BME280;48756;41.374;2.066;2023-09-19T09:15:21;101302.44;;;25.86;61.71
56042;BME280;48756;41.374;2.066;2023-09-19T09:17:48;101305.03;;;25.17;64.57
56042;BME280;48756;41.374;2.066;2023-09-19T09:20:19;101294.81;;;25.52;62.67
56042;BME280;48756;41.374;2.066;2023-09-19T09:22:55;101296.56;;;25.67;63.38
56042;BME280;48756;41.374;2.066;2023-09-19T09:25:22;101297.28;;;25.83;62.52
56042;BME280;48756;41.374;2.066;2023-09-19T09:28:01;101290.38;;;25.93;63.03
56042;BME280;48756;41.374;2.066;2023-09-19T09:30:37;101289.09;;;26.13;64.25
56042;BME280;48756;41.374;2.066;2023-09-19T09:33:10;101276.53;;;26.55;62.63
56042;BME280;48756;41.374;2.066;2023-09-19T09:35:49;101272.38;;;26.64;63.25
56042;BME280;48756;41.374;2.066;2023-09-19T09:38:21;101277.53;;;26.92;62.32
56042;BME280;48756;41.374;2.066;2023-09-19T09:40:52;101264.63;;;27.24;62.04
56042;BME280;48756;41.374;2.066;2023-09-19T09:43:36;101272.88;;;27.21;61.28
56042;BME280;48756;41.374;2.066;2023-09-19T09:46:07;101272.22;;;27.05;64.43
56042;BME280;48756;41.374;2.066;2023-09-19T09:48:37;101269.84;;;26.75;64.36
56042;BME280;48756;41.374;2.066;2023-09-19T09:51:04;101266.06;;;26.52;65.21
56042;BME280;48756;41.374;2.066;2023-09-19T09:53:33;101271.91;;;27.09;62.37
56042;BME280;48756;41.374;2.066;2023-09-19T09:58:32;101280.84;;;27.72;58.46
56042;BME280;48756;41.374;2.066;2023-09-19T10:00:59;101284.94;;;28.25;57.94
56042;BME280;48756;41.374;2.066;2023-09-19T10:03:35;101305.81;;;28.33;58.56
56042;BME280;48756;41.374;2.066;2023-09-19T10:06:08;101290.81;;;28.54;54.81
56042;BME280;48756;41.374;2.066;2023-09-19T10:09:02;101294.59;;;27.91;56.26
56042;BME280;48756;41.374;2.066;2023-09-19T10:11:48;101284.00;;;27.28;57.36
56042;BME280;48756;41.374;2.066;2023-09-19T10:14:25;101279.00;;;27.60;58.82
56042;BME280;48756;41.374;2.066;2023-09-19T10:16:56;101271.66;;;27.38;58.31
56042;BME280;48756;41.374;2.066;2023-09-19T10:19:54;101272.06;;;27.57;57.15
56042;BME280;48756;41.374;2.066;2023-09-19T10:22:23;101270.31;;;27.82;57.02
56042;BME280;48756;41.374;2.066;2023-09-19T10:24:53;101269.28;;;28.32;55.69
56042;BME280;48756;41.374;2.066;2023-09-19T10:27:19;101263.94;;;28.19;56.88
56042;BME280;48756;41.374;2.066;2023-09-19T10:29:49;101269.72;;;28.61;53.94
56042;BME280;48756;41.374;2.066;2023-09-19T10:32:22;101257.84;;;28.41;56.06
56042;BME280;48756;41.374;2.066;2023-09-19T10:34:49;101253.28;;;28.65;54.51
56042;BME280;48756;41.374;2.066;2023-09-19T10:37:18;101254.47;;;28.96;53.92
56042;BME280;48756;41.374;2.066;2023-09-19T10:39:46;101254.25;;;29.22;55.21
56042;BME280;48756;41.374;2.066;2023-09-19T10:42:17;101253.00;;;29.37;54.78
56042;BME280;48756;41.374;2.066;2023-09-19T10:44:45;101257.28;;;29.62;54.24
56042;BME280;48756;41.374;2.066;2023-09-19T10:47:12;101256.19;;;28.98;54.68
56042;BME280;48756;41.374;2.066;2023-09-19T10:49:45;101258.75;;;29.33;54.02
56042;BME280;48756;41.374;2.066;2023-09-19T10:52:14;101261.19;;;29.58;53.02
56042;BME280;48756;41.374;2.066;2023-09-19T10:54:46;101253.88;;;29.15;49.52
56042;BME280;48756;41.374;2.066;2023-09-19T10:57:21;101258.16;;;30.17;48.21
56042;BME280;48756;41.374;2.066;2023-09-19T11:00:08;101254.22;;;29.78;47.53
56042;BME280;48756;41.374;2.066;2023-09-19T11:09:03;101245.56;;;29.18;49.96
56042;BME280;48756;41.374;2.066;2023-09-19T11:11:47;101239.72;;;29.36;51.41
56042;BME280;48756;41.374;2.066;2023-09-19T11:30:33;101236.16;;;29.35;50.02
56042;BME280;48756;41.374;2.066;2023-09-19T11:33:30;101235.56;;;29.43;50.71
56042;BME280;48756;41.374;2.066;2023-09-19T11:43:52;101239.44;;;29.72;52.65
56042;BME280;48756;41.374;2.066;2023-09-19T11:46:20;101237.63;;;29.62;50.70
56042;BME280;48756;41.374;2.066;2023-09-19T11:48:48;101236.28;;;29.67;51.38
56042;BME280;48756;41.374;2.066;2023-09-19T11:51:23;101229.56;;;29.62;52.75
56042;BME280;48756;41.374;2.066;2023-09-19T11:53:55;101237.28;;;29.55;52.92
56042;BME280;48756;41.374;2.066;2023-09-19T11:56:25;101240.13;;;29.97;50.94
56042;BME280;48756;41.374;2.066;2023-09-19T11:58:54;101239.34;;;29.63;53.13
56042;BME280;48756;41.374;2.066;2023-09-19T12:01:30;101255.09;;;29.11;53.19
56042;BME280;48756;41.374;2.066;2023-09-19T12:03:58;101252.41;;;29.00;54.08
56042;BME280;48756;41.374;2.066;2023-09-19T12:06:25;101244.22;;;29.57;51.95
56042;BME280;48756;41.374;2.066;2023-09-19T12:08:51;101245.00;;;29.48;52.47
56042;BME280;48756;41.374;2.066;2023-09-19T12:11:21;101233.88;;;29.53;52.00
56042;BME280;48756;41.374;2.066;2023-09-19T12:13:49;101242.34;;;28.80;51.63
56042;BME280;48756;41.374;2.066;2023-09-19T12:16:16;101235.94;;;29.16;52.05
56042;BME280;48756;41.374;2.066;2023-09-19T12:18:44;101243.63;;;28.98;50.27
56042;BME280;48756;41.374;2.066;2023-09-19T12:21:28;101250.22;;;29.27;51.56
56042;BME280;48756;41.374;2.066;2023-09-19T12:24:06;101240.22;;;29.30;51.92
56042;BME280;48756;41.374;2.066;2023-09-19T12:26:42;101232.28;;;29.28;51.51
56042;BME280;48756;41.374;2.066;2023-09-19T12:29:19;101227.31;;;29.46;50.08
56042;BME280;48756;41.374;2.066;2023-09-19T12:31:56;101225.94;;;29.18;51.04
56042;BME280;48756;41.374;2.066;2023-09-19T12:34:32;101221.78;;;29.25;51.55
56042;BME280;48756;41.374;2.066;2023-09-19T12:37:06;101224.84;;;29.43;50.22
56042;BME280;48756;41.374;2.066;2023-09-19T12:39:39;101216.59;;;28.66;52.55
56042;BME280;48756;41.374;2.066;2023-09-19T12:42:08;101218.50;;;29.10;52.10
56042;BME280;48756;41.374;2.066;2023-09-19T12:44:36;101211.31;;;29.22;52.10
56042;BME280;48756;41.374;2.066;2023-09-19T12:47:14;101220.47;;;28.97;51.34
56042;BME280;48756;41.374;2.066;2023-09-19T12:50:11;101218.22;;;28.80;52.33
56042;BME280;48756;41.374;2.066;2023-09-19T12:55:23;101218.56;;;28.29;52.98
56042;BME280;48756;41.374;2.066;2023-09-19T12:58:09;101223.13;;;28.16;55.66
56042;BME280;48756;41.374;2.066;2023-09-19T13:00:40;101220.84;;;28.68;53.42
56042;BME280;48756;41.374;2.066;2023-09-19T13:06:01;101194.25;;;28.08;56.46
56042;BME280;48756;41.374;2.066;2023-09-19T13:08:31;101197.31;;;28.15;56.84
56042;BME280;48756;41.374;2.066;2023-09-19T13:11:12;101184.16;;;28.23;56.54
56042;BME280;48756;41.374;2.066;2023-09-19T13:13:46;101189.91;;;28.53;54.38
56042;BME280;48756;41.374;2.066;2023-09-19T13:16:15;101187.53;;;28.49;54.15
56042;BME280;48756;41.374;2.066;2023-09-19T13:21:13;101181.84;;;28.64;53.77
56042;BME280;48756;41.374;2.066;2023-09-19T13:23:49;101185.59;;;28.40;55.02
56042;BME280;48756;41.374;2.066;2023-09-19T13:26:15;101179.56;;;28.25;55.03
56042;BME280;48756;41.374;2.066;2023-09-19T13:28:41;101176.69;;;28.39;54.84
56042;BME280;48756;41.374;2.066;2023-09-19T13:31:06;101178.94;;;28.56;54.29
56042;BME280;48756;41.374;2.066;2023-09-19T13:33:33;101184.25;;;28.45;54.62
56042;BME280;48756;41.374;2.066;2023-09-19T13:35:59;101184.97;;;28.36;54.50
56042;BME280;48756;41.374;2.066;2023-09-19T13:38:25;101179.13;;;28.31;56.38
56042;BME280;48756;41.374;2.066;2023-09-19T13:40:50;101174.66;;;28.19;54.97
56042;BME280;48756;41.374;2.066;2023-09-19T13:43:17;101175.03;;;27.90;57.06
56042;BME280;48756;41.374;2.066;2023-09-19T13:45:43;101165.06;;;27.92;57.28
56042;BME280;48756;41.374;2.066;2023-09-19T13:48:09;101166.13;;;28.14;56.38
56042;BME280;48756;41.374;2.066;2023-09-19T13:50:37;101162.09;;;28.19;56.40
56042;BME280;48756;41.374;2.066;2023-09-19T13:53:08;101163.78;;;28.33;55.95
56042;BME280;48756;41.374;2.066;2023-09-19T13:55:34;101145.59;;;27.90;58.06
56042;BME280;48756;41.374;2.066;2023-09-19T13:58:00;101135.97;;;27.88;58.04
56042;BME280;48756;41.374;2.066;2023-09-19T14:00:25;101133.91;;;27.91;56.61
56042;BME280;48756;41.374;2.066;2023-09-19T14:02:55;101137.56;;;27.54;58.39